sensor_id;sensor_type;location;lat;lon;timestamp;P1;durP1;ratioP1;P2;durP2;ratioP2
45043;SDS011;30784;48.490;9.688;2024-02-21T00:02:19;17.55;;;7.05;;
45043;SDS011;30784;48.490;9.688;2024-02-21T00:04:44;12.70;;;5.30;;
45043;SDS011;30784;48.490;9.688;2024-02-21T00:07:10;11.15;;;4.88;;
45043;SDS011;30784;48.490;9.688;2024-02-21T00:09:35;12.48;;;4.75;;
45043;SDS011;30784;48.490;9.688;2024-02-21T00:12:01;12.27;;;4.57;;
45043;SDS011;30784;48.490;9.688;2024-02-21T00:14:27;11.88;;;4.10;;
45043;SDS011;30784;48.490;9.688;2024-02-21T00:16:52;9.52;;;3.05;;
45043;SDS011;30784;48.490;9.688;2024-02-21T00:19:18;9.50;;;3.20;;
45043;SDS011;30784;48.490;9.688;2024-02-21T00:21:43;10.30;;;2.83;;
45043;SDS011;30784;48.490;9.688;2024-02-21T00:24:09;10.88;;;2.47;;
45043;SDS011;30784;48.490;9.688;2024-02-21T00:26:34;10.30;;;2.20;;
45043;SDS011;30784;48.490;9.688;2024-02-21T00:29:00;10.18;;;2.15;;
45043;SDS011;30784;48.490;9.688;2024-02-21T00:31:25;8.80;;;1.88;;
45043;SDS011;30784;48.490;9.688;2024-02-21T00:33:51;7.10;;;1.77;;
45043;SDS011;30784;48.490;9.688;2024-02-21T00:36:17;7.80;;;2.20;;
45043;SDS011;30784;48.490;9.688;2024-02-21T00:38:42;8.43;;;1.90;;
45043;SDS011;30784;48.490;9.688;2024-02-21T00:41:07;8.05;;;1.88;;
45043;SDS011;30784;48.490;9.688;2024-02-21T00:43:33;8.98;;;2.20;;
45043;SDS011;30784;48.490;9.688;2024-02-21T00:45:58;9.15;;;1.80;;
45043;SDS011;30784;48.490;9.688;2024-02-21T00:48:24;7.63;;;1.75;;
45043;SDS011;30784;48.490;9.688;2024-02-21T00:50:49;8.63;;;1.90;;
45043;SDS011;30784;48.490;9.688;2024-02-21T00:53:15;9.13;;;1.80;;
45043;SDS011;30784;48.490;9.688;2024-02-21T00:55:40;10.32;;;1.92;;
45043;SDS011;30784;48.490;9.688;2024-02-21T00:58:08;7.70;;;1.65;;
45043;SDS011;30784;48.490;9.688;2024-02-21T01:00:33;9.05;;;2.30;;
45043;SDS011;30784;48.490;9.688;2024-02-21T01:02:59;8.40;;;1.90;;
45043;SDS011;30784;48.490;9.688;2024-02-21T01:05:25;7.82;;;1.83;;
45043;SDS011;30784;48.490;9.688;2024-02-21T01:07:52;8.30;;;1.90;;
45043;SDS011;30784;48.490;9.688;2024-02-21T01:10:17;8.50;;;2.42;;
45043;SDS011;30784;48.490;9.688;2024-02-21T01:12:43;7.95;;;2.03;;
45043;SDS011;30784;48.490;9.688;2024-02-21T01:15:08;7.68;;;1.52;;
45043;SDS011;30784;48.490;9.688;2024-02-21T01:17:36;8.02;;;1.63;;
45043;SDS011;30784;48.490;9.688;2024-02-21T01:20:02;7.78;;;1.85;;
45043;SDS011;30784;48.490;9.688;2024-02-21T01:22:30;8.05;;;1.90;;
45043;SDS011;30784;48.490;9.688;2024-02-21T01:24:56;8.23;;;1.60;;
45043;SDS011;30784;48.490;9.688;2024-02-21T01:27:21;7.18;;;1.70;;
45043;SDS011;30784;48.490;9.688;2024-02-21T01:29:47;10.90;;;3.83;;
45043;SDS011;30784;48.490;9.688;2024-02-21T01:32:14;13.32;;;2.58;;
45043;SDS011;30784;48.490;9.688;2024-02-21T01:34:40;11.75;;;3.22;;
45043;SDS011;30784;48.490;9.688;2024-02-21T01:37:06;7.97;;;2.00;;
45043;SDS011;30784;48.490;9.688;2024-02-21T01:39:32;6.85;;;1.70;;
45043;SDS011;30784;48.490;9.688;2024-02-21T01:41:58;7.72;;;1.63;;
45043;SDS011;30784;48.490;9.688;2024-02-21T01:44:24;9.60;;;2.03;;
45043;SDS011;30784;48.490;9.688;2024-02-21T01:46:49;6.78;;;1.88;;
45043;SDS011;30784;48.490;9.688;2024-02-21T01:49:16;7.22;;;1.83;;
45043;SDS011;30784;48.490;9.688;2024-02-21T01:51:42;7.82;;;1.80;;
45043;SDS011;30784;48.490;9.688;2024-02-21T01:54:08;7.22;;;1.92;;
45043;SDS011;30784;48.490;9.688;2024-02-21T01:56:35;7.78;;;1.50;;
45043;SDS011;30784;48.490;9.688;2024-02-21T01:59:00;8.95;;;1.92;;
45043;SDS011;30784;48.490;9.688;2024-02-21T02:01:26;8.10;;;1.80;;
45043;SDS011;30784;48.490;9.688;2024-02-21T02:03:51;8.07;;;1.63;;
45043;SDS011;30784;48.490;9.688;2024-02-21T02:06:17;9.70;;;2.10;;
45043;SDS011;30784;48.490;9.688;2024-02-21T02:08:43;8.90;;;1.70;;
45043;SDS011;30784;48.490;9.688;2024-02-21T02:11:09;7.30;;;1.55;;
45043;SDS011;30784;48.490;9.688;2024-02-21T02:13:35;10.73;;;2.00;;
45043;SDS011;30784;48.490;9.688;2024-02-21T02:16:03;7.97;;;1.80;;
45043;SDS011;30784;48.490;9.688;2024-02-21T02:18:29;8.82;;;2.25;;
45043;SDS011;30784;48.490;9.688;2024-02-21T02:20:55;7.85;;;1.40;;
45043;SDS011;30784;48.490;9.688;2024-02-21T02:23:27;6.75;;;1.55;;
45043;SDS011;30784;48.490;9.688;2024-02-21T02:25:54;5.70;;;1.70;;
45043;SDS011;30784;48.490;9.688;2024-02-21T02:28:21;7.60;;;1.77;;
45043;SDS011;30784;48.490;9.688;2024-02-21T02:30:47;8.50;;;2.13;;
45043;SDS011;30784;48.490;9.688;2024-02-21T02:33:13;8.63;;;1.73;;
45043;SDS011;30784;48.490;9.688;2024-02-21T02:35:39;9.27;;;1.95;;
45043;SDS011;30784;48.490;9.688;2024-02-21T02:38:04;8.77;;;1.85;;
45043;SDS011;30784;48.490;9.688;2024-02-21T02:40:30;6.22;;;1.60;;
45043;SDS011;30784;48.490;9.688;2024-02-21T02:42:58;9.10;;;2.00;;
45043;SDS011;30784;48.490;9.688;2024-02-21T02:45:23;7.95;;;1.70;;
45043;SDS011;30784;48.490;9.688;2024-02-21T02:47:51;8.02;;;1.95;;
45043;SDS011;30784;48.490;9.688;2024-02-21T02:50:20;9.30;;;2.10;;
45043;SDS011;30784;48.490;9.688;2024-02-21T02:52:45;7.97;;;1.80;;
45043;SDS011;30784;48.490;9.688;2024-02-21T02:55:11;6.05;;;1.50;;
45043;SDS011;30784;48.490;9.688;2024-02-21T02:57:37;8.40;;;1.83;;
45043;SDS011;30784;48.490;9.688;2024-02-21T03:00:03;7.57;;;1.55;;
45043;SDS011;30784;48.490;9.688;2024-02-21T03:02:29;9.07;;;1.75;;
45043;SDS011;30784;48.490;9.688;2024-02-21T03:04:56;9.27;;;1.70;;
45043;SDS011;30784;48.490;9.688;2024-02-21T03:07:22;8.07;;;2.00;;
45043;SDS011;30784;48.490;9.688;2024-02-21T03:09:49;7.85;;;1.75;;
45043;SDS011;30784;48.490;9.688;2024-02-21T03:12:15;8.75;;;2.17;;
45043;SDS011;30784;48.490;9.688;2024-02-21T03:14:49;7.15;;;1.70;;
45043;SDS011;30784;48.490;9.688;2024-02-21T03:17:14;9.18;;;1.88;;
45043;SDS011;30784;48.490;9.688;2024-02-21T03:19:40;7.28;;;1.70;;
45043;SDS011;30784;48.490;9.688;2024-02-21T03:22:05;8.52;;;2.10;;
45043;SDS011;30784;48.490;9.688;2024-02-21T03:24:31;7.15;;;1.40;;
45043;SDS011;30784;48.490;9.688;2024-02-21T03:26:56;7.70;;;2.13;;
45043;SDS011;30784;48.490;9.688;2024-02-21T03:29:23;8.40;;;1.80;;
45043;SDS011;30784;48.490;9.688;2024-02-21T03:31:50;7.93;;;1.58;;
45043;SDS011;30784;48.490;9.688;2024-02-21T03:34:15;9.13;;;1.60;;
45043;SDS011;30784;48.490;9.688;2024-02-21T03:36:41;8.35;;;1.70;;
45043;SDS011;30784;48.490;9.688;2024-02-21T03:39:06;12.02;;;2.65;;
45043;SDS011;30784;48.490;9.688;2024-02-21T03:41:34;9.75;;;2.35;;
45043;SDS011;30784;48.490;9.688;2024-02-21T03:44:00;7.90;;;1.88;;
45043;SDS011;30784;48.490;9.688;2024-02-21T03:46:25;7.18;;;1.63;;
45043;SDS011;30784;48.490;9.688;2024-02-21T03:48:51;6.53;;;1.50;;
45043;SDS011;30784;48.490;9.688;2024-02-21T03:51:17;7.93;;;1.75;;
45043;SDS011;30784;48.490;9.688;2024-02-21T03:53:42;9.23;;;2.08;;
45043;SDS011;30784;48.490;9.688;2024-02-21T03:56:08;7.78;;;1.58;;
45043;SDS011;30784;48.490;9.688;2024-02-21T03:58:34;8.10;;;1.67;;
45043;SDS011;30784;48.490;9.688;2024-02-21T04:00:59;6.60;;;1.67;;
45043;SDS011;30784;48.490;9.688;2024-02-21T04:03:26;8.40;;;2.22;;
45043;SDS011;30784;48.490;9.688;2024-02-21T04:05:51;10.57;;;3.30;;
45043;SDS011;30784;48.490;9.688;2024-02-21T04:08:17;14.27;;;3.92;;
45043;SDS011;30784;48.490;9.688;2024-02-21T04:10:42;8.65;;;2.67;;
45043;SDS011;30784;48.490;9.688;2024-02-21T04:13:08;8.15;;;2.00;;
45043;SDS011;30784;48.490;9.688;2024-02-21T04:15:34;7.68;;;1.80;;
45043;SDS011;30784;48.490;9.688;2024-02-21T04:18:00;8.88;;;1.77;;
45043;SDS011;30784;48.490;9.688;2024-02-21T04:20:26;8.25;;;1.55;;
45043;SDS011;30784;48.490;9.688;2024-02-21T04:22:51;7.38;;;1.40;;
45043;SDS011;30784;48.490;9.688;2024-02-21T04:25:17;5.40;;;1.38;;
45043;SDS011;30784;48.490;9.688;2024-02-21T04:27:42;7.22;;;1.70;;
45043;SDS011;30784;48.490;9.688;2024-02-21T04:30:09;6.22;;;1.42;;
45043;SDS011;30784;48.490;9.688;2024-02-21T04:32:35;9.25;;;1.70;;
45043;SDS011;30784;48.490;9.688;2024-02-21T04:35:00;7.07;;;1.60;;
45043;SDS011;30784;48.490;9.688;2024-02-21T04:37:26;5.72;;;1.30;;
45043;SDS011;30784;48.490;9.688;2024-02-21T04:39:52;7.78;;;1.58;;
45043;SDS011;30784;48.490;9.688;2024-02-21T04:42:17;6.65;;;1.48;;
45043;SDS011;30784;48.490;9.688;2024-02-21T04:44:43;6.00;;;1.45;;
45043;SDS011;30784;48.490;9.688;2024-02-21T04:47:08;6.65;;;1.45;;
45043;SDS011;30784;48.490;9.688;2024-02-21T04:49:34;8.07;;;1.50;;
45043;SDS011;30784;48.490;9.688;2024-02-21T04:52:00;7.30;;;1.50;;
45043;SDS011;30784;48.490;9.688;2024-02-21T04:54:25;7.05;;;1.48;;
45043;SDS011;30784;48.490;9.688;2024-02-21T04:56:51;6.53;;;1.80;;
45043;SDS011;30784;48.490;9.688;2024-02-21T04:59:17;6.68;;;1.23;;
45043;SDS011;30784;48.490;9.688;2024-02-21T05:01:43;7.97;;;1.40;;
45043;SDS011;30784;48.490;9.688;2024-02-21T05:04:08;7.35;;;1.48;;
45043;SDS011;30784;48.490;9.688;2024-02-21T05:06:40;8.05;;;1.67;;
45043;SDS011;30784;48.490;9.688;2024-02-21T05:09:06;6.05;;;1.38;;
45043;SDS011;30784;48.490;9.688;2024-02-21T05:11:33;8.20;;;2.00;;
45043;SDS011;30784;48.490;9.688;2024-02-21T05:13:59;8.90;;;1.92;;
45043;SDS011;30784;48.490;9.688;2024-02-21T05:16:25;7.18;;;1.80;;
45043;SDS011;30784;48.490;9.688;2024-02-21T05:18:50;8.50;;;1.80;;
45043;SDS011;30784;48.490;9.688;2024-02-21T05:21:16;7.13;;;1.90;;
45043;SDS011;30784;48.490;9.688;2024-02-21T05:23:41;9.93;;;1.70;;
45043;SDS011;30784;48.490;9.688;2024-02-21T05:26:07;10.45;;;1.77;;
45043;SDS011;30784;48.490;9.688;2024-02-21T05:28:32;9.60;;;2.03;;
45043;SDS011;30784;48.490;9.688;2024-02-21T05:30:58;7.80;;;1.70;;
45043;SDS011;30784;48.490;9.688;2024-02-21T05:33:24;8.02;;;2.00;;
45043;SDS011;30784;48.490;9.688;2024-02-21T05:35:50;7.35;;;1.60;;
45043;SDS011;30784;48.490;9.688;2024-02-21T05:38:16;7.53;;;1.90;;
45043;SDS011;30784;48.490;9.688;2024-02-21T05:40:42;9.30;;;1.98;;
45043;SDS011;30784;48.490;9.688;2024-02-21T05:43:09;8.07;;;2.40;;
45043;SDS011;30784;48.490;9.688;2024-02-21T05:45:34;9.02;;;2.20;;
45043;SDS011;30784;48.490;9.688;2024-02-21T05:48:00;9.70;;;2.60;;
45043;SDS011;30784;48.490;9.688;2024-02-21T05:50:27;8.57;;;2.50;;
45043;SDS011;30784;48.490;9.688;2024-02-21T05:52:56;9.40;;;2.00;;
45043;SDS011;30784;48.490;9.688;2024-02-21T05:55:22;8.80;;;1.98;;
45043;SDS011;30784;48.490;9.688;2024-02-21T05:57:47;11.80;;;2.10;;
45043;SDS011;30784;48.490;9.688;2024-02-21T06:00:13;9.88;;;2.20;;
45043;SDS011;30784;48.490;9.688;2024-02-21T06:02:40;8.50;;;2.00;;
45043;SDS011;30784;48.490;9.688;2024-02-21T06:05:06;10.60;;;2.10;;
45043;SDS011;30784;48.490;9.688;2024-02-21T06:07:34;8.00;;;1.90;;
45043;SDS011;30784;48.490;9.688;2024-02-21T06:10:01;9.13;;;2.50;;
45043;SDS011;30784;48.490;9.688;2024-02-21T06:12:27;12.68;;;3.22;;
45043;SDS011;30784;48.490;9.688;2024-02-21T06:14:52;7.68;;;2.28;;
45043;SDS011;30784;48.490;9.688;2024-02-21T06:17:18;9.00;;;2.20;;
45043;SDS011;30784;48.490;9.688;2024-02-21T06:19:44;9.45;;;1.90;;
45043;SDS011;30784;48.490;9.688;2024-02-21T06:22:10;10.48;;;2.58;;
45043;SDS011;30784;48.490;9.688;2024-02-21T06:24:36;12.02;;;2.60;;
45043;SDS011;30784;48.490;9.688;2024-02-21T06:27:03;8.38;;;2.00;;
45043;SDS011;30784;48.490;9.688;2024-02-21T06:29:30;10.15;;;2.03;;
45043;SDS011;30784;48.490;9.688;2024-02-21T06:31:56;8.00;;;2.03;;
45043;SDS011;30784;48.490;9.688;2024-02-21T06:34:22;11.57;;;1.80;;
45043;SDS011;30784;48.490;9.688;2024-02-21T06:36:49;10.05;;;2.40;;
45043;SDS011;30784;48.490;9.688;2024-02-21T06:39:14;8.63;;;2.70;;
45043;SDS011;30784;48.490;9.688;2024-02-21T06:41:40;10.18;;;3.10;;
45043;SDS011;30784;48.490;9.688;2024-02-21T06:44:05;9.75;;;2.60;;
45043;SDS011;30784;48.490;9.688;2024-02-21T06:46:31;10.48;;;2.80;;
45043;SDS011;30784;48.490;9.688;2024-02-21T06:49:00;11.95;;;2.95;;
45043;SDS011;30784;48.490;9.688;2024-02-21T06:51:26;10.30;;;3.40;;
45043;SDS011;30784;48.490;9.688;2024-02-21T06:53:52;10.65;;;3.20;;
45043;SDS011;30784;48.490;9.688;2024-02-21T06:56:19;10.25;;;2.95;;
45043;SDS011;30784;48.490;9.688;2024-02-21T06:58:44;9.70;;;2.70;;
45043;SDS011;30784;48.490;9.688;2024-02-21T07:01:10;8.38;;;1.90;;
45043;SDS011;30784;48.490;9.688;2024-02-21T07:03:36;10.00;;;2.20;;
45043;SDS011;30784;48.490;9.688;2024-02-21T07:06:01;7.25;;;2.00;;
45043;SDS011;30784;48.490;9.688;2024-02-21T07:08:28;10.10;;;2.60;;
45043;SDS011;30784;48.490;9.688;2024-02-21T07:10:54;12.00;;;2.40;;
45043;SDS011;30784;48.490;9.688;2024-02-21T07:13:19;9.70;;;2.38;;
45043;SDS011;30784;48.490;9.688;2024-02-21T07:15:46;9.63;;;1.83;;
45043;SDS011;30784;48.490;9.688;2024-02-21T07:18:12;8.32;;;1.85;;
45043;SDS011;30784;48.490;9.688;2024-02-21T07:20:38;9.23;;;1.70;;
45043;SDS011;30784;48.490;9.688;2024-02-21T07:23:06;8.93;;;1.75;;
45043;SDS011;30784;48.490;9.688;2024-02-21T07:25:32;8.95;;;1.58;;
45043;SDS011;30784;48.490;9.688;2024-02-21T07:27:57;8.23;;;1.65;;
45043;SDS011;30784;48.490;9.688;2024-02-21T07:30:22;8.98;;;1.63;;
45043;SDS011;30784;48.490;9.688;2024-02-21T07:32:51;7.60;;;1.67;;
45043;SDS011;30784;48.490;9.688;2024-02-21T07:35:17;7.70;;;1.80;;
45043;SDS011;30784;48.490;9.688;2024-02-21T07:37:43;8.15;;;1.80;;
45043;SDS011;30784;48.490;9.688;2024-02-21T07:40:12;7.03;;;1.65;;
45043;SDS011;30784;48.490;9.688;2024-02-21T07:45:04;10.80;;;2.40;;
45043;SDS011;30784;48.490;9.688;2024-02-21T07:47:30;8.80;;;2.55;;
45043;SDS011;30784;48.490;9.688;2024-02-21T07:49:56;11.23;;;3.50;;
45043;SDS011;30784;48.490;9.688;2024-02-21T07:52:21;12.38;;;3.78;;
45043;SDS011;30784;48.490;9.688;2024-02-21T07:54:47;9.85;;;2.38;;
45043;SDS011;30784;48.490;9.688;2024-02-21T07:57:12;8.98;;;2.08;;
45043;SDS011;30784;48.490;9.688;2024-02-21T07:59:38;8.82;;;1.85;;
45043;SDS011;30784;48.490;9.688;2024-02-21T08:02:04;9.60;;;1.65;;
45043;SDS011;30784;48.490;9.688;2024-02-21T08:04:31;5.75;;;1.38;;
45043;SDS011;30784;48.490;9.688;2024-02-21T08:06:57;8.57;;;1.50;;
45043;SDS011;30784;48.490;9.688;2024-02-21T08:09:26;7.10;;;1.50;;
45043;SDS011;30784;48.490;9.688;2024-02-21T08:11:52;6.47;;;1.35;;
45043;SDS011;30784;48.490;9.688;2024-02-21T08:14:19;6.00;;;1.40;;
45043;SDS011;30784;48.490;9.688;2024-02-21T08:16:44;5.68;;;1.40;;
45043;SDS011;30784;48.490;9.688;2024-02-21T08:19:10;6.88;;;1.85;;
45043;SDS011;30784;48.490;9.688;2024-02-21T08:21:36;8.63;;;1.60;;
45043;SDS011;30784;48.490;9.688;2024-02-21T08:24:01;7.20;;;1.40;;
45043;SDS011;30784;48.490;9.688;2024-02-21T08:26:27;5.43;;;1.33;;
45043;SDS011;30784;48.490;9.688;2024-02-21T08:28:55;7.30;;;1.38;;
45043;SDS011;30784;48.490;9.688;2024-02-21T08:31:23;4.60;;;1.13;;
45043;SDS011;30784;48.490;9.688;2024-02-21T08:33:56;6.55;;;1.52;;
45043;SDS011;30784;48.490;9.688;2024-02-21T08:36:27;7.43;;;1.48;;
45043;SDS011;30784;48.490;9.688;2024-02-21T08:38:57;6.32;;;1.58;;
45043;SDS011;30784;48.490;9.688;2024-02-21T08:41:23;7.40;;;1.70;;
45043;SDS011;30784;48.490;9.688;2024-02-21T08:43:52;6.47;;;1.52;;
45043;SDS011;30784;48.490;9.688;2024-02-21T08:46:22;8.13;;;1.67;;
45043;SDS011;30784;48.490;9.688;2024-02-21T08:51:18;6.57;;;1.50;;
45043;SDS011;30784;48.490;9.688;2024-02-21T08:53:44;6.30;;;1.15;;
45043;SDS011;30784;48.490;9.688;2024-02-21T08:56:10;5.63;;;1.33;;
45043;SDS011;30784;48.490;9.688;2024-02-21T08:58:36;5.78;;;1.15;;
45043;SDS011;30784;48.490;9.688;2024-02-21T09:01:05;4.70;;;1.13;;
45043;SDS011;30784;48.490;9.688;2024-02-21T09:03:32;6.30;;;1.27;;
45043;SDS011;30784;48.490;9.688;2024-02-21T09:05:59;9.57;;;1.20;;
45043;SDS011;30784;48.490;9.688;2024-02-21T09:08:25;5.80;;;1.30;;
45043;SDS011;30784;48.490;9.688;2024-02-21T09:10:50;5.28;;;1.30;;
45043;SDS011;30784;48.490;9.688;2024-02-21T09:13:16;7.57;;;1.40;;
45043;SDS011;30784;48.490;9.688;2024-02-21T09:15:44;6.88;;;1.00;;
45043;SDS011;30784;48.490;9.688;2024-02-21T09:18:10;2.88;;;0.85;;
45043;SDS011;30784;48.490;9.688;2024-02-21T09:20:35;3.67;;;1.00;;
45043;SDS011;30784;48.490;9.688;2024-02-21T09:23:01;5.72;;;1.00;;
45043;SDS011;30784;48.490;9.688;2024-02-21T09:25:26;4.05;;;0.80;;
45043;SDS011;30784;48.490;9.688;2024-02-21T09:27:53;3.83;;;0.93;;
45043;SDS011;30784;48.490;9.688;2024-02-21T09:30:19;5.10;;;1.05;;
45043;SDS011;30784;48.490;9.688;2024-02-21T09:32:45;3.33;;;0.90;;
45043;SDS011;30784;48.490;9.688;2024-02-21T09:35:11;3.97;;;1.00;;
45043;SDS011;30784;48.490;9.688;2024-02-21T09:37:37;3.92;;;0.90;;
45043;SDS011;30784;48.490;9.688;2024-02-21T09:40:04;6.57;;;1.17;;
45043;SDS011;30784;48.490;9.688;2024-02-21T09:42:39;6.53;;;1.30;;
45043;SDS011;30784;48.490;9.688;2024-02-21T09:45:19;6.15;;;1.52;;
45043;SDS011;30784;48.490;9.688;2024-02-21T09:47:59;7.03;;;1.65;;
45043;SDS011;30784;48.490;9.688;2024-02-21T09:50:54;7.90;;;1.50;;
45043;SDS011;30784;48.490;9.688;2024-02-21T09:53:22;6.93;;;1.58;;
45043;SDS011;30784;48.490;9.688;2024-02-21T09:55:49;6.80;;;1.70;;
45043;SDS011;30784;48.490;9.688;2024-02-21T09:58:15;6.35;;;1.60;;
45043;SDS011;30784;48.490;9.688;2024-02-21T10:00:41;5.88;;;1.30;;
45043;SDS011;30784;48.490;9.688;2024-02-21T10:03:06;9.85;;;2.67;;
45043;SDS011;30784;48.490;9.688;2024-02-21T10:05:35;5.97;;;1.50;;
45043;SDS011;30784;48.490;9.688;2024-02-21T10:08:01;6.57;;;1.20;;
45043;SDS011;30784;48.490;9.688;2024-02-21T10:10:27;4.88;;;1.23;;
45043;SDS011;30784;48.490;9.688;2024-02-21T10:12:54;5.45;;;1.33;;
45043;SDS011;30784;48.490;9.688;2024-02-21T10:15:21;6.00;;;1.33;;
45043;SDS011;30784;48.490;9.688;2024-02-21T10:17:58;5.33;;;0.97;;
45043;SDS011;30784;48.490;9.688;2024-02-21T10:20:24;5.30;;;1.02;;
45043;SDS011;30784;48.490;9.688;2024-02-21T10:22:59;4.38;;;0.90;;
45043;SDS011;30784;48.490;9.688;2024-02-21T10:25:35;4.60;;;0.95;;
45043;SDS011;30784;48.490;9.688;2024-02-21T10:28:03;5.30;;;1.15;;
45043;SDS011;30784;48.490;9.688;2024-02-21T10:30:29;3.63;;;0.90;;
45043;SDS011;30784;48.490;9.688;2024-02-21T10:32:55;4.05;;;0.90;;
45043;SDS011;30784;48.490;9.688;2024-02-21T10:35:28;3.45;;;0.80;;
45043;SDS011;30784;48.490;9.688;2024-02-21T10:37:56;2.17;;;0.68;;
45043;SDS011;30784;48.490;9.688;2024-02-21T10:40:25;5.97;;;1.40;;
45043;SDS011;30784;48.490;9.688;2024-02-21T10:42:59;4.65;;;0.93;;
45043;SDS011;30784;48.490;9.688;2024-02-21T10:45:33;4.43;;;1.00;;
45043;SDS011;30784;48.490;9.688;2024-02-21T10:48:01;4.20;;;1.00;;
45043;SDS011;30784;48.490;9.688;2024-02-21T10:56:29;4.90;;;1.27;;
45043;SDS011;30784;48.490;9.688;2024-02-21T10:58:58;4.63;;;1.10;;
45043;SDS011;30784;48.490;9.688;2024-02-21T11:01:29;4.45;;;1.00;;
45043;SDS011;30784;48.490;9.688;2024-02-21T11:04:07;5.63;;;1.02;;
45043;SDS011;30784;48.490;9.688;2024-02-21T11:06:37;6.38;;;1.13;;
45043;SDS011;30784;48.490;9.688;2024-02-21T11:09:05;5.90;;;1.08;;
45043;SDS011;30784;48.490;9.688;2024-02-21T11:11:35;3.67;;;0.93;;
45043;SDS011;30784;48.490;9.688;2024-02-21T11:14:06;2.85;;;0.75;;
45043;SDS011;30784;48.490;9.688;2024-02-21T11:16:39;4.22;;;1.10;;
45043;SDS011;30784;48.490;9.688;2024-02-21T11:19:09;6.72;;;1.02;;
45043;SDS011;30784;48.490;9.688;2024-02-21T11:21:36;4.18;;;1.30;;
45043;SDS011;30784;48.490;9.688;2024-02-21T11:24:03;2.53;;;0.80;;
45043;SDS011;30784;48.490;9.688;2024-02-21T11:26:29;3.80;;;0.90;;
45043;SDS011;30784;48.490;9.688;2024-02-21T11:28:59;3.95;;;0.80;;
45043;SDS011;30784;48.490;9.688;2024-02-21T11:31:38;4.55;;;0.95;;
45043;SDS011;30784;48.490;9.688;2024-02-21T11:34:10;3.60;;;0.80;;
45043;SDS011;30784;48.490;9.688;2024-02-21T11:36:45;4.38;;;1.20;;
45043;SDS011;30784;48.490;9.688;2024-02-21T11:39:24;4.50;;;0.95;;
45043;SDS011;30784;48.490;9.688;2024-02-21T11:42:03;3.45;;;0.80;;
45043;SDS011;30784;48.490;9.688;2024-02-21T11:44:31;3.43;;;0.70;;
45043;SDS011;30784;48.490;9.688;2024-02-21T11:46:57;6.50;;;1.10;;
45043;SDS011;30784;48.490;9.688;2024-02-21T11:49:28;3.35;;;0.80;;
45043;SDS011;30784;48.490;9.688;2024-02-21T11:51:58;4.10;;;1.00;;
45043;SDS011;30784;48.490;9.688;2024-02-21T11:54:25;2.67;;;0.70;;
45043;SDS011;30784;48.490;9.688;2024-02-21T11:56:51;2.97;;;0.82;;
45043;SDS011;30784;48.490;9.688;2024-02-21T11:59:16;4.70;;;1.00;;
45043;SDS011;30784;48.490;9.688;2024-02-21T12:01:42;4.97;;;1.08;;
45043;SDS011;30784;48.490;9.688;2024-02-21T12:04:07;4.07;;;0.90;;
45043;SDS011;30784;48.490;9.688;2024-02-21T12:06:33;5.18;;;1.20;;
45043;SDS011;30784;48.490;9.688;2024-02-21T12:08:59;6.07;;;1.30;;
45043;SDS011;30784;48.490;9.688;2024-02-21T12:11:24;5.18;;;1.10;;
45043;SDS011;30784;48.490;9.688;2024-02-21T12:13:59;4.63;;;1.20;;
45043;SDS011;30784;48.490;9.688;2024-02-21T12:16:27;4.72;;;1.10;;
45043;SDS011;30784;48.490;9.688;2024-02-21T12:18:54;3.42;;;0.85;;
45043;SDS011;30784;48.490;9.688;2024-02-21T12:21:25;4.47;;;1.17;;
45043;SDS011;30784;48.490;9.688;2024-02-21T12:23:58;4.55;;;1.10;;
45043;SDS011;30784;48.490;9.688;2024-02-21T12:26:24;4.65;;;1.00;;
45043;SDS011;30784;48.490;9.688;2024-02-21T12:28:50;4.07;;;1.17;;
45043;SDS011;30784;48.490;9.688;2024-02-21T12:31:16;4.60;;;1.00;;
45043;SDS011;30784;48.490;9.688;2024-02-21T12:33:44;5.40;;;1.20;;
45043;SDS011;30784;48.490;9.688;2024-02-21T12:36:10;4.20;;;0.90;;
45043;SDS011;30784;48.490;9.688;2024-02-21T12:38:36;3.13;;;0.77;;
45043;SDS011;30784;48.490;9.688;2024-02-21T12:41:01;2.72;;;0.70;;
45043;SDS011;30784;48.490;9.688;2024-02-21T12:43:28;4.40;;;1.10;;
45043;SDS011;30784;48.490;9.688;2024-02-21T12:45:54;3.67;;;1.05;;
45043;SDS011;30784;48.490;9.688;2024-02-21T12:48:19;4.10;;;1.00;;
45043;SDS011;30784;48.490;9.688;2024-02-21T12:50:48;5.55;;;1.10;;
45043;SDS011;30784;48.490;9.688;2024-02-21T12:53:18;2.53;;;0.75;;
45043;SDS011;30784;48.490;9.688;2024-02-21T12:55:46;3.90;;;1.10;;
45043;SDS011;30784;48.490;9.688;2024-02-21T12:58:13;3.88;;;1.02;;
45043;SDS011;30784;48.490;9.688;2024-02-21T13:00:39;5.20;;;1.38;;
45043;SDS011;30784;48.490;9.688;2024-02-21T13:03:05;4.68;;;1.10;;
45043;SDS011;30784;48.490;9.688;2024-02-21T13:05:30;5.00;;;1.00;;
45043;SDS011;30784;48.490;9.688;2024-02-21T13:07:57;6.75;;;1.35;;
45043;SDS011;30784;48.490;9.688;2024-02-21T13:10:23;5.82;;;1.38;;
45043;SDS011;30784;48.490;9.688;2024-02-21T13:12:48;4.47;;;1.25;;
45043;SDS011;30784;48.490;9.688;2024-02-21T13:15:14;4.43;;;1.20;;
45043;SDS011;30784;48.490;9.688;2024-02-21T13:17:41;4.57;;;1.20;;
45043;SDS011;30784;48.490;9.688;2024-02-21T13:20:07;4.03;;;0.98;;
45043;SDS011;30784;48.490;9.688;2024-02-21T13:22:33;5.20;;;1.38;;
45043;SDS011;30784;48.490;9.688;2024-02-21T13:24:59;4.45;;;1.10;;
45043;SDS011;30784;48.490;9.688;2024-02-21T13:27:25;3.22;;;0.98;;
45043;SDS011;30784;48.490;9.688;2024-02-21T13:29:51;7.07;;;2.05;;
45043;SDS011;30784;48.490;9.688;2024-02-21T13:32:17;5.05;;;1.20;;
45043;SDS011;30784;48.490;9.688;2024-02-21T13:34:43;4.05;;;1.10;;
45043;SDS011;30784;48.490;9.688;2024-02-21T13:37:09;4.47;;;1.00;;
45043;SDS011;30784;48.490;9.688;2024-02-21T13:39:35;3.72;;;0.85;;
45043;SDS011;30784;48.490;9.688;2024-02-21T13:42:01;4.85;;;0.70;;
45043;SDS011;30784;48.490;9.688;2024-02-21T13:44:27;2.63;;;0.80;;
45043;SDS011;30784;48.490;9.688;2024-02-21T13:46:53;3.95;;;1.00;;
45043;SDS011;30784;48.490;9.688;2024-02-21T13:49:18;4.32;;;0.98;;
45043;SDS011;30784;48.490;9.688;2024-02-21T13:51:44;4.65;;;1.13;;
45043;SDS011;30784;48.490;9.688;2024-02-21T13:54:10;4.05;;;1.00;;
45043;SDS011;30784;48.490;9.688;2024-02-21T13:56:36;4.35;;;0.82;;
45043;SDS011;30784;48.490;9.688;2024-02-21T13:59:02;3.33;;;0.88;;
45043;SDS011;30784;48.490;9.688;2024-02-21T14:01:28;3.88;;;0.80;;
45043;SDS011;30784;48.490;9.688;2024-02-21T14:03:54;2.95;;;0.90;;
45043;SDS011;30784;48.490;9.688;2024-02-21T14:06:19;3.22;;;0.90;;
45043;SDS011;30784;48.490;9.688;2024-02-21T14:08:45;3.72;;;0.90;;
45043;SDS011;30784;48.490;9.688;2024-02-21T14:11:10;4.05;;;0.90;;
45043;SDS011;30784;48.490;9.688;2024-02-21T14:13:36;5.03;;;1.25;;
45043;SDS011;30784;48.490;9.688;2024-02-21T14:16:02;3.50;;;0.88;;
45043;SDS011;30784;48.490;9.688;2024-02-21T14:18:27;3.30;;;0.80;;
45043;SDS011;30784;48.490;9.688;2024-02-21T14:20:53;4.70;;;0.85;;
45043;SDS011;30784;48.490;9.688;2024-02-21T14:23:18;2.45;;;0.80;;
45043;SDS011;30784;48.490;9.688;2024-02-21T14:25:44;3.70;;;0.90;;
45043;SDS011;30784;48.490;9.688;2024-02-21T14:28:09;3.47;;;0.80;;
45043;SDS011;30784;48.490;9.688;2024-02-21T14:30:35;3.75;;;0.98;;
45043;SDS011;30784;48.490;9.688;2024-02-21T14:33:01;4.07;;;0.90;;
45043;SDS011;30784;48.490;9.688;2024-02-21T14:35:26;4.20;;;0.88;;
45043;SDS011;30784;48.490;9.688;2024-02-21T14:37:52;3.30;;;0.80;;
45043;SDS011;30784;48.490;9.688;2024-02-21T14:40:22;2.53;;;0.68;;
45043;SDS011;30784;48.490;9.688;2024-02-21T14:42:48;2.92;;;0.70;;
45043;SDS011;30784;48.490;9.688;2024-02-21T14:45:13;4.43;;;1.08;;
45043;SDS011;30784;48.490;9.688;2024-02-21T14:47:39;3.25;;;0.95;;
45043;SDS011;30784;48.490;9.688;2024-02-21T14:50:05;3.05;;;0.98;;
45043;SDS011;30784;48.490;9.688;2024-02-21T14:52:32;9.48;;;3.25;;
45043;SDS011;30784;48.490;9.688;2024-02-21T14:55:01;7.93;;;2.85;;